Time;durP1;ratioP1;P1;durP2;ratioP2;P2;SDS_P1;SDS_P2;PMS_P1;PMS_P2;Temp;Humidity;BMP_temperature;BMP_pressure;BME280_temperature;BME280_humidity;BME280_pressure;Samples;Min_cycle;Max_cycle;Signal;HPM_P1;HPM_P2
2022/06/21 00:01:12;;;;;;;24.27;23.03;;;15.00;99.90;;;;;;5038336;28;20199;-79
2022/06/21 00:03:39;;;;;;;23.17;21.93;;;14.90;99.90;;;;;;5034985;28;20278;-79
2022/06/21 00:06:05;;;;;;;11.10;10.50;;;14.80;99.90;;;;;;5034723;28;20178;-79
2022/06/21 00:08:34;;;;;;;11.83;11.33;;;14.80;99.90;;;;;;5036015;28;20264;-79
2022/06/21 00:11:01;;;;;;;13.03;12.00;;;14.80;99.90;;;;;;5048573;28;20271;-80
2022/06/21 00:13:30;;;;;;;16.00;15.23;;;14.70;99.90;;;;;;5056910;28;20228;-80
2022/06/21 00:16:10;;;;;;;9.87;9.37;;;14.60;99.90;;;;;;5051446;28;20187;-79
2022/06/21 00:18:38;;;;;;;30.57;28.87;;;14.40;99.90;;;;;;5047600;28;20179;-79
2022/06/21 00:21:11;;;;;;;84.23;79.17;;;14.30;99.90;;;;;;5038353;28;20705;-79
2022/06/21 00:23:37;;;;;;;83.80;79.50;;;14.30;99.90;;;;;;5035264;28;20183;-78
2022/06/21 00:26:03;;;;;;;50.10;47.13;;;14.40;99.90;;;;;;5033963;28;20190;-78
2022/06/21 00:28:29;;;;;;;10.73;10.03;;;14.40;99.90;;;;;;5033103;28;20282;-79
2022/06/21 00:30:55;;;;;;;10.57;10.07;;;14.50;99.90;;;;;;5033634;28;20199;-78
2022/06/21 00:33:23;;;;;;;15.17;14.43;;;14.60;99.90;;;;;;5035336;28;20655;-80
2022/06/21 00:35:52;;;;;;;78.57;74.77;;;14.60;99.90;;;;;;5033018;28;20281;-79
2022/06/21 00:38:30;;;;;;;82.00;77.80;;;14.60;99.90;;;;;;5032860;28;20221;-78
2022/06/21 00:40:59;;;;;;;22.70;21.47;;;14.60;99.90;;;;;;5035332;28;20202;-78
2022/06/21 00:43:29;;;;;;;7.13;6.83;;;14.60;99.90;;;;;;5033454;28;20183;-79
2022/06/21 00:45:55;;;;;;;7.33;7.03;;;14.60;99.90;;;;;;5033886;28;20183;-78
2022/06/21 00:48:39;;;;;;;12.03;11.33;;;14.60;99.90;;;;;;5032760;28;20206;-78
2022/06/21 00:51:13;;;;;;;11.50;10.90;;;14.50;99.90;;;;;;5036406;28;20218;-79
2022/06/21 00:53:49;;;;;;;16.80;15.90;;;14.40;99.90;;;;;;5034632;28;20174;-79
2022/06/21 00:56:22;;;;;;;19.83;18.83;;;14.30;99.90;;;;;;5034589;28;20222;-78
2022/06/21 00:58:48;;;;;;;8.30;7.67;;;14.20;99.90;;;;;;5032562;28;20187;-78
2022/06/21 01:01:44;;;;;;;7.33;6.97;;;14.20;99.90;;;;;;5034084;28;20333;-79
2022/06/21 01:04:29;;;;;;;7.70;7.37;;;14.20;99.90;;;;;;5022532;28;20630;-79
2022/06/21 01:06:59;;;;;;;9.30;8.87;;;14.20;99.90;;;;;;5044214;28;20201;-79
2022/06/21 01:09:38;;;;;;;5.30;5.00;;;14.10;99.90;;;;;;5049242;28;20171;-79
2022/06/21 01:12:23;;;;;;;27.10;25.70;;;14.00;99.90;;;;;;5044709;28;20221;-79
2022/06/21 01:15:08;;;;;;;65.37;62.17;;;13.90;99.90;;;;;;5032873;28;20182;-78
2022/06/21 01:17:35;;;;;;;19.23;18.20;;;13.80;99.90;;;;;;5031529;28;20601;-77
2022/06/21 01:20:11;;;;;;;5.27;4.93;;;13.80;99.90;;;;;;5030673;28;20198;-77
2022/06/21 01:22:37;;;;;;;4.80;4.60;;;13.80;99.90;;;;;;5030432;28;20190;-77
2022/06/21 01:25:30;;;;;;;14.77;13.97;;;13.70;99.90;;;;;;5034099;28;20625;-78
2022/06/21 01:27:56;;;;;;;47.87;45.47;;;13.70;99.90;;;;;;5045562;28;20214;-78
2022/06/21 01:30:28;;;;;;;32.33;30.80;;;13.50;99.90;;;;;;5034915;28;20707;-78
2022/06/21 01:32:58;;;;;;;25.47;24.10;;;13.60;99.90;;;;;;5046791;28;20175;-78
2022/06/21 01:35:33;;;;;;;21.90;20.87;;;13.60;99.90;;;;;;5041620;28;20179;-78
2022/06/21 01:37:59;;;;;;;26.97;25.53;;;13.60;99.90;;;;;;5035083;28;20212;-78
2022/06/21 01:40:35;;;;;;;60.00;57.07;;;13.70;99.90;;;;;;5043869;28;20210;-78
2022/06/21 01:43:06;;;;;;;29.23;27.87;;;13.70;99.90;;;;;;5041995;28;20198;-79
2022/06/21 01:45:39;;;;;;;12.53;11.87;;;13.70;99.90;;;;;;5042017;28;20687;-78
2022/06/21 01:48:21;;;;;;;4.00;3.80;;;13.70;99.90;;;;;;5036016;28;20703;-78
2022/06/21 01:50:50;;;;;;;4.43;4.13;;;13.60;99.90;;;;;;5035590;28;20237;-78
2022/06/21 01:53:21;;;;;;;32.73;31.03;;;13.60;99.90;;;;;;5058298;28;20173;-78
2022/06/21 01:55:52;;;;;;;10.93;10.30;;;13.60;99.90;;;;;;5040332;28;20186;-79
2022/06/21 01:58:21;;;;;;;5.60;5.30;;;13.70;99.90;;;;;;5041509;28;20183;-79
2022/06/21 02:00:56;;;;;;;4.23;4.13;;;13.70;99.90;;;;;;5034687;28;20750;-78
2022/06/21 02:03:30;;;;;;;4.30;4.10;;;13.80;99.90;;;;;;5034627;28;20185;-78
2022/06/21 02:06:01;;;;;;;8.70;8.10;;;13.90;99.90;;;;;;5034997;28;20182;-77
2022/06/21 02:08:42;;;;;;;17.30;16.50;;;13.90;99.90;;;;;;5033101;28;20230;-78
2022/06/21 02:11:14;;;;;;;20.93;19.93;;;13.90;99.90;;;;;;5033840;28;20229;-78
2022/06/21 02:13:48;;;;;;;24.00;22.70;;;13.90;99.90;;;;;;5041204;28;20721;-78
2022/06/21 02:16:21;;;;;;;14.70;13.93;;;14.00;99.90;;;;;;5037907;28;20182;-78
2022/06/21 02:18:52;;;;;;;17.67;16.70;;;14.00;99.90;;;;;;5035823;28;20191;-79
2022/06/21 02:21:36;;;;;;;26.30;24.97;;;14.00;99.90;;;;;;5036949;28;20284;-79
2022/06/21 02:24:02;;;;;;;18.03;16.93;;;13.80;99.90;;;;;;5033145;28;20183;-78
2022/06/21 02:26:30;;;;;;;28.00;26.43;;;13.80;99.90;;;;;;5034410;28;20179;-78
2022/06/21 02:28:56;;;;;;;29.63;28.20;;;13.70;99.90;;;;;;5033036;28;20206;-78
2022/06/21 02:31:26;;;;;;;30.37;28.77;;;13.50;99.90;;;;;;5033297;28;20769;-78
2022/06/21 02:33:54;;;;;;;14.83;14.07;;;13.40;99.90;;;;;;5034411;28;20186;-78
2022/06/21 02:36:24;;;;;;;6.67;6.17;;;13.30;99.90;;;;;;5037090;28;20174;-78
2022/06/21 02:38:56;;;;;;;5.33;4.93;;;13.30;99.90;;;;;;5044956;28;20663;-79
2022/06/21 02:41:32;;;;;;;13.33;12.73;;;13.20;99.90;;;;;;5036131;28;20214;-80
2022/06/21 02:44:21;;;;;;;11.07;10.53;;;13.10;99.90;;;;;;5032108;28;20240;-79
2022/06/21 02:46:51;;;;;;;5.20;4.90;;;13.10;99.90;;;;;;5035607;28;20191;-80
2022/06/21 02:49:36;;;;;;;7.80;7.20;;;13.10;99.90;;;;;;5037887;28;20206;-78
2022/06/21 02:52:18;;;;;;;24.47;23.33;;;13.00;99.90;;;;;;5036527;28;20189;-80
2022/06/21 02:55:08;;;;;;;30.27;28.63;;;13.00;99.90;;;;;;5034981;28;20589;-79
2022/06/21 02:57:47;;;;;;;37.20;35.40;;;12.90;99.90;;;;;;5035227;28;20190;-79
2022/06/21 03:00:16;;;;;;;32.47;30.63;;;12.90;99.90;;;;;;5035600;28;20210;-78
2022/06/21 03:02:43;;;;;;;29.37;27.90;;;12.90;99.90;;;;;;5036578;28;20271;-79
2022/06/21 03:05:22;;;;;;;19.10;18.10;;;12.90;99.90;;;;;;5039516;28;20186;-79
2022/06/21 03:07:53;;;;;;;15.90;15.10;;;12.90;99.90;;;;;;5036298;28;20214;-79
2022/06/21 03:10:26;;;;;;;18.30;17.40;;;12.90;99.90;;;;;;5040062;28;20203;-79
2022/06/21 03:13:05;;;;;;;20.73;19.80;;;12.90;99.90;;;;;;5039183;28;20175;-79
2022/06/21 03:15:31;;;;;;;17.73;16.73;;;12.90;99.90;;;;;;5038741;28;20205;-79
2022/06/21 03:18:06;;;;;;;17.40;16.53;;;12.90;99.90;;;;;;5035704;28;20182;-79
2022/06/21 03:20:33;;;;;;;13.83;13.23;;;12.90;99.90;;;;;;5037203;28;20273;-79
2022/06/21 03:23:01;;;;;;;17.77;16.67;;;13.00;99.90;;;;;;5037691;28;20187;-79
2022/06/21 03:25:34;;;;;;;20.17;19.17;;;13.00;99.90;;;;;;5044556;28;20201;-79
2022/06/21 03:28:01;;;;;;;15.80;14.97;;;13.10;99.90;;;;;;5036051;28;20317;-78
2022/06/21 03:30:34;;;;;;;17.57;16.47;;;13.20;99.90;;;;;;5041042;28;20266;-79
2022/06/21 03:33:02;;;;;;;17.27;16.20;;;13.30;99.90;;;;;;5050092;28;20194;-78
2022/06/21 03:35:31;;;;;;;23.53;22.33;;;13.40;99.90;;;;;;5035582;28;20273;-77
2022/06/21 03:37:57;;;;;;;13.93;12.80;;;13.50;99.90;;;;;;5036450;28;20346;-78
2022/06/21 03:43:25;;;;;;;5.73;5.33;;;13.60;99.90;;;;;;5037291;28;20194;-79
2022/06/21 03:45:52;;;;;;;11.20;10.33;;;13.60;99.90;;;;;;5037803;28;20190;-79
2022/06/21 03:48:38;;;;;;;11.23;10.53;;;13.60;99.90;;;;;;5053510;28;20210;-79
2022/06/21 03:51:26;;;;;;;25.53;24.23;;;13.60;99.90;;;;;;5049002;28;20694;-79
2022/06/21 03:54:08;;;;;;;24.30;23.13;;;13.60;99.90;;;;;;5053935;28;20182;-79
2022/06/21 03:56:47;;;;;;;38.87;36.77;;;13.70;99.90;;;;;;5039412;28;20663;-79
2022/06/21 03:59:26;;;;;;;31.47;29.63;;;13.80;99.90;;;;;;5036000;28;20187;-79
2022/06/21 04:02:00;;;;;;;18.27;17.33;;;13.80;99.90;;;;;;5034912;28;20273;-79
2022/06/21 04:04:42;;;;;;;19.17;18.17;;;13.80;99.90;;;;;;5034608;28;20190;-77
2022/06/21 04:07:35;;;;;;;33.87;32.07;;;13.80;99.90;;;;;;5032467;28;20183;-78
2022/06/21 04:10:08;;;;;;;16.97;16.07;;;13.80;99.90;;;;;;5041527;28;20226;-78
2022/06/21 04:12:41;;;;;;;10.30;9.70;;;13.80;99.90;;;;;;5039768;28;20183;-79
2022/06/21 04:15:17;;;;;;;10.43;9.83;;;13.90;99.90;;;;;;5038884;28;20552;-79
2022/06/21 04:17:58;;;;;;;17.77;16.47;;;13.90;99.90;;;;;;5032980;28;20209;-78
2022/06/21 04:20:50;;;;;;;21.13;19.87;;;14.00;99.90;;;;;;5032154;28;20207;-77
2022/06/21 04:23:31;;;;;;;16.97;15.93;;;14.10;99.90;;;;;;5032251;28;20178;-77
2022/06/21 04:26:09;;;;;;;16.20;15.30;;;14.20;99.90;;;;;;5031097;28;20178;-78
2022/06/21 04:28:41;;;;;;;68.83;65.43;;;14.40;99.90;;;;;;5031305;28;20210;-78
2022/06/21 04:31:07;;;;;;;83.73;79.40;;;14.50;99.90;;;;;;5031501;28;20207;-79
2022/06/21 04:33:38;;;;;;;153.33;145.63;;;14.70;99.90;;;;;;5032637;28;20342;-78
2022/06/21 04:36:12;;;;;;;37.30;35.27;;;14.90;99.90;;;;;;5031816;28;20186;-77
2022/06/21 04:38:45;;;;;;;6.60;6.00;;;15.10;99.90;;;;;;5030886;28;20182;-80
2022/06/21 04:41:14;;;;;;;5.80;5.30;;;15.30;99.90;;;;;;5035408;28;20698;-78
2022/06/21 04:43:44;;;;;;;9.10;8.50;;;15.50;99.90;;;;;;5034030;28;20337;-79
2022/06/21 04:46:19;;;;;;;10.20;9.50;;;15.70;99.90;;;;;;5033434;28;20189;-79
2022/06/21 04:48:57;;;;;;;6.20;5.60;;;15.90;99.90;;;;;;5032607;28;20558;-78
2022/06/21 04:51:45;;;;;;;5.97;5.63;;;16.10;99.90;;;;;;5040300;23;20223;-74
2022/06/21 04:54:22;;;;;;;6.00;5.23;;;16.40;99.90;;;;;;5011633;28;20710;-74
2022/06/21 04:56:54;;;;;;;5.63;5.20;;;16.60;99.90;;;;;;5010566;28;20176;-74
2022/06/21 04:59:45;;;;;;;6.17;5.73;;;16.90;99.90;;;;;;5011443;28;20191;-74
2022/06/21 05:02:22;;;;;;;6.27;5.77;;;17.10;99.90;;;;;;4992086;28;20436;-74
2022/06/21 05:04:56;;;;;;;51.23;48.63;;;17.30;99.90;;;;;;4991883;28;20199;-74
2022/06/21 05:07:25;;;;;;;53.90;51.13;;;17.40;99.90;;;;;;4990788;28;20223;-75
2022/06/21 05:09:54;;;;;;;5.33;4.93;;;17.60;99.90;;;;;;4991592;28;20231;-76
2022/06/21 05:12:36;;;;;;;5.73;5.33;;;17.80;99.90;;;;;;4996279;28;20189;-74
2022/06/21 05:15:14;;;;;;;6.70;6.30;;;17.70;99.90;;;;;;4992581;28;20203;-74
2022/06/21 05:17:43;;;;;;;6.90;5.60;;;17.80;99.90;;;;;;4989422;28;20180;-74
2022/06/21 05:20:17;;;;;;;5.30;4.87;;;17.70;99.90;;;;;;4990136;28;20275;-75
2022/06/21 05:22:48;;;;;;;6.07;5.60;;;17.50;99.90;;;;;;4995264;28;20253;-75
2022/06/21 05:25:24;;;;;;;6.17;5.63;;;17.40;99.90;;;;;;4998700;28;20216;-74
2022/06/21 05:28:13;;;;;;;5.20;4.97;;;17.80;99.90;;;;;;5000190;28;20212;-75
2022/06/21 05:30:49;;;;;;;6.57;6.20;;;18.00;99.90;;;;;;5000010;28;20665;-74
2022/06/21 05:33:41;;;;;;;7.73;7.17;;;18.00;99.90;;;;;;4996165;28;20187;-76
2022/06/21 05:36:11;;;;;;;12.73;11.80;;;18.00;99.90;;;;;;4994223;28;20184;-76
2022/06/21 05:38:49;;;;;;;19.67;18.63;;;18.10;99.90;;;;;;4993542;28;20275;-75
2022/06/21 05:41:34;;;;;;;16.77;15.93;;;18.20;99.90;;;;;;4993803;28;20204;-74
2022/06/21 05:44:13;;;;;;;17.57;16.63;;;18.20;99.90;;;;;;4993964;28;20184;-74
2022/06/21 05:47:04;;;;;;;22.00;20.77;;;18.30;99.90;;;;;;4994919;28;20212;-73
2022/06/21 05:49:32;;;;;;;18.43;17.40;;;18.30;99.90;;;;;;4994337;28;20205;-75
2022/06/21 05:52:02;;;;;;;22.37;21.17;;;18.70;99.90;;;;;;4994857;28;20219;-75
2022/06/21 05:54:37;;;;;;;21.60;20.40;;;19.40;99.90;;;;;;4994753;28;20215;-74
2022/06/21 05:57:06;;;;;;;14.10;13.33;;;20.20;99.90;;;;;;4993893;28;20683;-73
2022/06/21 05:59:32;;;;;;;6.93;6.47;;;20.80;99.90;;;;;;4993439;28;20184;-73
2022/06/21 06:02:16;;;;;;;9.27;8.67;;;20.80;99.90;;;;;;4993233;28;20208;-74
2022/06/21 06:04:45;;;;;;;11.18;10.52;;;21.00;99.10;;;;;;4994724;28;20656;-76
2022/06/21 06:07:26;;;;;;;5.93;5.50;;;21.40;97.50;;;;;;4992511;28;20180;-74
2022/06/21 06:09:56;;;;;;;8.68;8.18;;;21.80;96.70;;;;;;4994355;28;20191;-75
2022/06/21 06:12:24;;;;;;;8.73;8.15;;;21.60;95.90;;;;;;4994626;28;20184;-75
2022/06/21 06:14:54;;;;;;;7.03;6.45;;;21.30;95.70;;;;;;4994382;28;20331;-74
2022/06/21 06:17:47;;;;;;;12.80;12.10;;;21.30;95.70;;;;;;4993484;28;20267;-74
2022/06/21 06:20:39;;;;;;;13.40;12.57;;;21.30;95.20;;;;;;4994650;28;20537;-74
2022/06/21 06:23:17;;;;;;;11.27;10.52;;;21.30;94.90;;;;;;4994534;28;20239;-75
2022/06/21 06:26:12;;;;;;;15.93;15.07;;;21.20;95.90;;;;;;4995018;28;20188;-75
2022/06/21 06:28:52;;;;;;;12.60;11.35;;;21.10;94.80;;;;;;4993145;28;20228;-75
2022/06/21 06:31:23;;;;;;;7.18;6.70;;;20.80;94.80;;;;;;4992596;28;20207;-75
2022/06/21 06:34:05;;;;;;;5.20;4.73;;;20.50;95.50;;;;;;4992859;28;20623;-75
2022/06/21 06:36:36;;;;;;;6.53;6.00;;;20.30;95.70;;;;;;4993100;28;20188;-74
2022/06/21 06:39:14;;;;;;;10.53;9.87;;;20.10;96.50;;;;;;4993292;28;20267;-74
2022/06/21 06:42:04;;;;;;;7.10;6.43;;;20.20;96.60;;;;;;4993817;28;20235;-74
2022/06/21 06:44:36;;;;;;;7.00;6.40;;;20.50;96.10;;;;;;4994243;28;20243;-74
2022/06/21 06:47:03;;;;;;;5.18;4.40;;;21.10;96.10;;;;;;4993077;28;20548;-73
2022/06/21 06:49:32;;;;;;;20.00;18.90;;;21.80;94.80;;;;;;4992623;28;20180;-74
2022/06/21 06:52:00;;;;;;;18.02;17.13;;;22.00;93.20;;;;;;4993494;28;20589;-74
2022/06/21 06:54:46;;;;;;;5.70;5.40;;;22.00;92.10;;;;;;4992671;28;20608;-74
2022/06/21 06:57:28;;;;;;;4.97;4.45;;;22.20;91.70;;;;;;4987978;28;20185;-75
2022/06/21 06:59:56;;;;;;;4.68;4.35;;;22.50;91.20;;;;;;4992509;28;20672;-75
2022/06/21 07:02:32;;;;;;;4.82;4.53;;;22.30;91.20;;;;;;4993436;28;20231;-75
2022/06/21 07:05:26;;;;;;;7.63;6.90;;;22.50;91.40;;;;;;4994198;28;20188;-75
2022/06/21 07:07:57;;;;;;;6.47;5.97;;;22.40;90.90;;;;;;4991937;28;20222;-75
2022/06/21 07:10:26;;;;;;;7.47;7.05;;;22.40;90.60;;;;;;4992633;28;20204;-75
2022/06/21 07:12:53;;;;;;;7.22;6.70;;;22.60;89.10;;;;;;4993334;28;20204;-74
2022/06/21 07:15:26;;;;;;;6.65;6.20;;;22.80;88.30;;;;;;4992201;28;20454;-75
2022/06/21 07:17:58;;;;;;;6.30;5.82;;;22.90;88.40;;;;;;4992339;28;20645;-74
2022/06/21 07:20:30;;;;;;;4.15;3.88;;;23.00;87.60;;;;;;4992225;28;20200;-75
2022/06/21 07:22:56;;;;;;;3.83;3.67;;;23.30;86.30;;;;;;4992094;28;20188;-75
2022/06/21 07:25:33;;;;;;;4.40;4.05;;;23.70;83.80;;;;;;4993230;28;20683;-75
2022/06/21 07:28:07;;;;;;;4.38;4.13;;;24.20;82.60;;;;;;4992294;28;20212;-75
2022/06/21 07:30:39;;;;;;;4.32;4.03;;;24.50;81.60;;;;;;4991460;28;20701;-75
2022/06/21 07:33:16;;;;;;;4.68;4.28;;;24.70;78.70;;;;;;4993106;28;20180;-75
2022/06/21 07:35:49;;;;;;;4.10;3.80;;;24.70;77.60;;;;;;4992990;28;20251;-73
2022/06/21 07:38:33;;;;;;;4.05;3.65;;;24.50;76.80;;;;;;4992522;28;20186;-74
2022/06/21 07:41:07;;;;;;;4.63;3.42;;;24.30;76.70;;;;;;4992885;28;20200;-77
2022/06/21 07:43:47;;;;;;;3.60;3.40;;;24.20;79.20;;;;;;4991313;28;20215;-75
2022/06/21 07:46:19;;;;;;;4.00;3.42;;;24.30;78.40;;;;;;4991717;28;20653;-74
2022/06/21 07:49:31;;;;;;;4.90;3.65;;;24.50;77.60;;;;;;4990838;28;20228;-74
2022/06/21 07:52:03;;;;;;;3.58;3.28;;;24.70;77.20;;;;;;4992210;28;20231;-74
2022/06/21 07:54:35;;;;;;;4.18;3.88;;;24.40;75.30;;;;;;4993840;28;20336;-74
2022/06/21 07:57:08;;;;;;;5.00;4.22;;;24.40;77.00;;;;;;4990996;28;20242;-75
2022/06/21 07:59:38;;;;;;;4.05;3.75;;;24.70;75.60;;;;;;4992837;28;20649;-76
2022/06/21 08:08:01;;;;;;;4.50;4.20;;;24.90;72.60;;;;;;4991713;28;20584;-74
2022/06/21 08:10:36;;;;;;;6.35;3.60;;;24.10;75.10;;;;;;4991231;28;20227;-76
2022/06/21 08:13:01;;;;;;;5.85;4.32;;;23.50;77.70;;;;;;4991162;28;20266;-75
2022/06/21 08:15:34;;;;;;;5.82;4.55;;;23.80;78.90;;;;;;4992422;28;20339;-76
2022/06/21 08:18:14;;;;;;;4.00;3.70;;;24.30;76.90;;;;;;4991638;28;20195;-75
2022/06/21 08:20:49;;;;;;;5.22;4.68;;;24.80;76.50;;;;;;4992290;28;20692;-75
2022/06/21 08:23:25;;;;;;;4.70;4.30;;;25.20;74.00;;;;;;4991091;28;20188;-75
2022/06/21 08:25:56;;;;;;;5.80;5.35;;;25.50;72.80;;;;;;4992217;28;20194;-75
2022/06/21 08:28:37;;;;;;;7.07;5.43;;;25.90;71.20;;;;;;4991355;28;20204;-75
2022/06/21 08:31:34;;;;;;;5.60;5.18;;;25.30;72.30;;;;;;4992169;28;20707;-74
2022/06/21 08:34:34;;;;;;;5.43;4.93;;;24.90;74.20;;;;;;4991741;28;20192;-75
2022/06/21 08:37:24;;;;;;;3.88;3.65;;;24.50;74.60;;;;;;4990090;28;20181;-74
2022/06/21 08:40:12;;;;;;;4.57;3.60;;;24.00;76.60;;;;;;4992016;28;20180;-75
2022/06/21 08:42:51;;;;;;;6.90;4.15;;;23.80;77.90;;;;;;4990842;28;20184;-75
2022/06/21 08:46:07;;;;;;;4.55;4.20;;;24.00;77.00;;;;;;4991956;28;20190;-76
2022/06/21 08:49:19;;;;;;;4.95;4.53;;;24.40;75.90;;;;;;4990018;28;20713;-76
2022/06/21 08:52:17;;;;;;;5.40;4.97;;;24.40;75.90;;;;;;4973673;28;20223;-76
2022/06/21 08:54:49;;;;;;;4.78;4.32;;;24.10;77.60;;;;;;4980080;28;20273;-75
2022/06/21 08:57:49;;;;;;;4.90;4.50;;;24.30;76.60;;;;;;4990675;28;20191;-76
2022/06/21 09:00:35;;;;;;;4.57;4.28;;;24.30;77.70;;;;;;4990315;28;20207;-75
2022/06/21 09:03:28;;;;;;;4.13;3.83;;;24.30;77.50;;;;;;4991831;28;20191;-75
2022/06/21 09:06:14;;;;;;;5.35;4.18;;;23.70;77.70;;;;;;4990816;28;20192;-75
2022/06/21 09:09:12;;;;;;;5.25;4.75;;;23.50;78.30;;;;;;4989753;28;20212;-75
2022/06/21 09:11:49;;;;;;;4.00;3.70;;;23.40;79.10;;;;;;4991120;28;20239;-75
2022/06/21 09:14:37;;;;;;;4.00;3.75;;;23.30;79.60;;;;;;4990624;28;20264;-75
2022/06/21 09:17:38;;;;;;;3.83;3.63;;;23.40;80.90;;;;;;4990992;28;20187;-75
2022/06/21 09:20:34;;;;;;;6.55;6.15;;;23.20;80.10;;;;;;4991544;28;20726;-75
2022/06/21 09:23:07;;;;;;;7.40;6.70;;;23.10;81.80;;;;;;4991978;28;20177;-75
2022/06/21 09:25:47;;;;;;;6.30;5.10;;;23.30;81.80;;;;;;4991754;28;20188;-75
2022/06/21 09:28:44;;;;;;;5.13;4.32;;;23.60;80.20;;;;;;4991677;28;20255;-75
2022/06/21 09:31:36;;;;;;;7.07;3.75;;;23.90;80.60;;;;;;4993429;28;20204;-75
2022/06/21 09:34:17;;;;;;;4.68;4.28;;;24.00;79.10;;;;;;4992752;28;20595;-74
2022/06/21 09:37:15;;;;;;;5.75;5.38;;;24.60;78.10;;;;;;4991057;28;20185;-75
2022/06/21 09:39:55;;;;;;;4.28;3.92;;;25.50;76.60;;;;;;4990779;28;20188;-75
2022/06/21 09:42:27;;;;;;;5.63;4.20;;;26.00;74.00;;;;;;4991482;28;20177;-75
2022/06/21 09:44:56;;;;;;;5.68;5.32;;;25.90;73.30;;;;;;4991478;28;20549;-75
2022/06/21 09:47:59;;;;;;;7.05;6.50;;;25.80;73.00;;;;;;4989465;28;20176;-75
2022/06/21 09:50:43;;;;;;;6.70;6.22;;;25.90;72.60;;;;;;4991247;28;20219;-75
2022/06/21 09:53:38;;;;;;;5.68;5.30;;;25.50;72.80;;;;;;4990090;28;20208;-75
2022/06/21 09:56:38;;;;;;;4.63;4.43;;;25.10;74.30;;;;;;4990059;28;20304;-75
2022/06/21 09:59:33;;;;;;;6.05;4.57;;;25.40;75.10;;;;;;4990390;28;20664;-75
2022/06/21 10:02:31;;;;;;;6.30;5.50;;;25.40;74.10;;;;;;4991100;28;20204;-76
2022/06/21 10:05:15;;;;;;;7.32;6.82;;;26.30;74.80;;;;;;4991779;28;20296;-76
2022/06/21 10:07:47;;;;;;;9.15;7.05;;;27.10;73.00;;;;;;4992358;28;20714;-75
2022/06/21 10:10:21;;;;;;;7.25;6.65;;;27.10;71.20;;;;;;4994538;28;20231;-75
2022/06/21 10:12:56;;;;;;;11.52;10.73;;;27.60;70.70;;;;;;4994397;28;20207;-75
2022/06/21 10:15:47;;;;;;;24.52;23.23;;;28.00;69.50;;;;;;4994473;28;20226;-76
2022/06/21 10:18:32;;;;;;;28.92;27.40;;;28.60;68.00;;;;;;4992316;28;20275;-75
2022/06/21 10:20:58;;;;;;;34.78;32.88;;;28.40;68.00;;;;;;4994186;28;20208;-76
2022/06/21 10:23:38;;;;;;;32.95;30.88;;;28.70;67.50;;;;;;4994120;28;20275;-76
2022/06/21 10:26:04;;;;;;;32.40;30.60;;;29.20;66.60;;;;;;4994184;28;20179;-76
2022/06/21 10:28:54;;;;;;;30.35;28.75;;;29.00;67.00;;;;;;4993204;28;20208;-75
2022/06/21 10:31:26;;;;;;;26.30;24.75;;;29.30;65.70;;;;;;4994120;28;20468;-75
2022/06/21 10:34:22;;;;;;;27.60;26.00;;;28.90;65.80;;;;;;4992948;28;20272;-75
2022/06/21 10:36:55;;;;;;;30.90;29.23;;;28.90;66.20;;;;;;4993187;28;20211;-74
2022/06/21 10:39:33;;;;;;;32.38;30.65;;;28.80;67.50;;;;;;4994148;28;20189;-75
2022/06/21 10:42:48;;;;;;;16.10;15.05;;;29.30;65.50;;;;;;4993658;28;20204;-75
2022/06/21 10:45:42;;;;;;;20.20;19.10;;;29.50;64.70;;;;;;4993947;28;20543;-75
2022/06/21 10:48:45;;;;;;;18.48;17.10;;;29.70;66.10;;;;;;4993089;28;20307;-75
2022/06/21 10:51:33;;;;;;;29.40;27.88;;;29.50;65.70;;;;;;5032075;22;20223;-80
2022/06/21 10:54:24;;;;;;;30.90;29.15;;;29.10;66.90;;;;;;5026620;28;20190;-80
2022/06/21 10:57:27;;;;;;;27.08;25.58;;;28.90;68.50;;;;;;5019651;28;20188;-78
2022/06/21 11:02:51;;;;;;;15.90;15.00;;;29.90;66.50;;;;;;4994411;28;20189;-79
2022/06/21 11:05:26;;;;;;;16.50;15.02;;;29.90;65.40;;;;;;4996066;28;20176;-78
2022/06/21 11:08:14;;;;;;;17.42;16.17;;;30.30;64.70;;;;;;4996486;28;20212;-79
2022/06/21 11:11:19;;;;;;;16.25;15.00;;;30.30;65.00;;;;;;4995665;28;20203;-78
2022/06/21 11:14:23;;;;;;;20.45;19.35;;;29.90;66.10;;;;;;4996717;28;20212;-78
2022/06/21 11:17:33;;;;;;;29.45;27.75;;;29.40;67.00;;;;;;4994039;28;20196;-78
2022/06/21 11:20:20;;;;;;;27.33;25.90;;;29.50;68.30;;;;;;4993678;28;20184;-78
2022/06/21 11:23:12;;;;;;;25.95;24.33;;;29.70;66.80;;;;;;4992633;28;20183;-77
2022/06/21 11:25:52;;;;;;;20.45;19.35;;;30.00;66.50;;;;;;4993866;28;20239;-80
2022/06/21 11:28:43;;;;;;;26.80;24.88;;;30.40;65.20;;;;;;4993754;28;20575;-78
2022/06/21 11:31:23;;;;;;;20.77;19.33;;;30.90;65.80;;;;;;4994770;28;20204;-78
2022/06/21 11:34:18;;;;;;;16.00;15.10;;;31.40;64.30;;;;;;5001886;28;20184;-78
2022/06/21 11:36:47;;;;;;;22.63;21.38;;;31.90;63.90;;;;;;4996173;28;20180;-79
2022/06/21 11:39:34;;;;;;;17.95;16.90;;;31.80;63.50;;;;;;4999463;28;20187;-78
2022/06/21 11:42:06;;;;;;;18.60;17.50;;;31.00;64.70;;;;;;5002656;28;20326;-78
2022/06/21 11:44:37;;;;;;;21.77;20.60;;;30.50;66.20;;;;;;5002287;28;20198;-79
2022/06/21 11:47:08;;;;;;;31.52;29.60;;;30.30;66.40;;;;;;5006926;28;20216;-78
2022/06/21 11:49:38;;;;;;;34.83;32.75;;;30.00;67.60;;;;;;5006186;28;20251;-77
2022/06/21 11:52:34;;;;;;;30.63;28.95;;;30.10;67.20;;;;;;4996259;28;20236;-77
2022/06/21 11:55:32;;;;;;;33.72;32.00;;;29.90;68.30;;;;;;4995563;28;20295;-78
2022/06/21 11:58:13;;;;;;;36.47;34.15;;;30.10;69.00;;;;;;4992778;28;20184;-77
2022/06/21 12:00:55;;;;;;;32.65;30.88;;;30.10;67.70;;;;;;4992140;28;20623;-78
2022/06/21 12:04:08;;;;;;;28.40;26.83;;;29.90;68.70;;;;;;4991952;28;20183;-78
2022/06/21 12:06:59;;;;;;;34.35;32.42;;;30.40;68.30;;;;;;5000433;28;20594;-78
2022/06/21 12:09:42;;;;;;;29.15;27.48;;;30.30;68.40;;;;;;5012929;28;20322;-79
2022/06/21 12:12:25;;;;;;;21.80;20.70;;;31.50;65.50;;;;;;4994601;28;20210;-79
2022/06/21 12:15:12;;;;;;;16.85;15.85;;;32.20;65.00;;;;;;4996272;28;20203;-78
2022/06/21 12:17:54;;;;;;;18.40;17.48;;;31.70;64.70;;;;;;4998635;28;20191;-78
2022/06/21 12:20:45;;;;;;;25.80;24.25;;;30.80;65.90;;;;;;4996872;28;20188;-78
2022/06/21 12:23:56;;;;;;;28.58;27.08;;;30.10;68.10;;;;;;4993212;28;20223;-77
2022/06/21 12:26:25;;;;;;;27.88;26.23;;;29.80;68.40;;;;;;4994837;28;20192;-78
2022/06/21 12:28:54;;;;;;;34.63;32.67;;;30.20;67.70;;;;;;4991590;28;20263;-78
2022/06/21 12:31:36;;;;;;;21.73;20.55;;;31.00;67.20;;;;;;4997323;28;20219;-78
2022/06/21 12:34:06;;;;;;;23.98;22.55;;;31.50;65.70;;;;;;5002251;28;20266;-78
2022/06/21 12:36:46;;;;;;;33.85;31.83;;;30.50;66.40;;;;;;4991827;28;20656;-78
2022/06/21 12:39:22;;;;;;;30.83;28.92;;;29.60;69.60;;;;;;4991438;28;20250;-78
2022/06/21 12:42:12;;;;;;;35.08;33.17;;;29.80;68.80;;;;;;4992587;28;20207;-78
2022/06/21 12:44:53;;;;;;;30.35;28.70;;;30.50;67.70;;;;;;4991527;28;20195;-78
2022/06/21 12:47:38;;;;;;;28.00;26.50;;;30.60;66.50;;;;;;4991260;28;20242;-78
2022/06/21 12:50:42;;;;;;;25.67;24.33;;;30.80;66.50;;;;;;4994200;28;20226;-78
2022/06/21 12:53:29;;;;;;;29.02;27.52;;;31.30;65.80;;;;;;4993664;28;20192;-78
2022/06/21 12:56:05;;;;;;;31.55;29.83;;;31.10;66.10;;;;;;4994224;28;20637;-79
2022/06/21 12:58:51;;;;;;;38.20;35.97;;;30.20;67.70;;;;;;4994726;28;20180;-78
2022/06/21 13:01:22;;;;;;;36.70;34.88;;;29.70;68.20;;;;;;4995557;28;20214;-79
2022/06/21 13:04:20;;;;;;;22.17;20.65;;;29.40;69.70;;;;;;4994509;28;20226;-79
2022/06/21 13:06:56;;;;;;;15.52;14.70;;;28.70;71.50;;;;;;4994353;28;20659;-80
2022/06/21 13:09:31;;;;;;;10.88;9.90;;;28.60;72.10;;;;;;5004980;28;20255;-79
2022/06/21 13:12:16;;;;;;;7.28;6.82;;;28.40;73.50;;;;;;5008062;28;20216;-80
2022/06/21 13:14:53;;;;;;;13.00;12.30;;;28.60;73.60;;;;;;5007154;28;20657;-80
2022/06/21 13:17:34;;;;;;;12.00;11.38;;;29.00;71.90;;;;;;5006251;28;20180;-80
2022/06/21 13:20:04;;;;;;;11.70;10.93;;;29.00;72.50;;;;;;4998782;28;20560;-79
2022/06/21 13:22:36;;;;;;;17.27;16.25;;;29.70;71.80;;;;;;4997730;28;20215;-79
2022/06/21 13:25:27;;;;;;;36.08;34.03;;;31.00;69.50;;;;;;5005510;28;20270;-80
2022/06/21 13:28:14;;;;;;;29.27;27.67;;;31.30;67.40;;;;;;5001788;28;20715;-80
2022/06/21 13:31:02;;;;;;;26.13;24.50;;;31.50;67.10;;;;;;4997708;28;20586;-80
2022/06/21 13:34:04;;;;;;;14.57;13.60;;;32.40;65.00;;;;;;4998012;28;20192;-79
2022/06/21 13:36:41;;;;;;;21.95;20.75;;;32.70;63.60;;;;;;4993923;28;20187;-81
2022/06/21 13:39:39;;;;;;;25.33;23.92;;;32.80;63.90;;;;;;4993808;28;20180;-80
2022/06/21 13:42:37;;;;;;;24.60;23.00;;;33.40;61.70;;;;;;5008249;28;20239;-79
2022/06/21 13:45:11;;;;;;;25.67;24.27;;;33.10;61.70;;;;;;5003788;28;20761;-79
2022/06/21 13:48:03;;;;;;;26.02;24.20;;;32.70;62.00;;;;;;4997899;28;20250;-79